Time;durP1;ratioP1;P1;durP2;ratioP2;P2;SDS_P1;SDS_P2;PMS_P1;PMS_P2;Temp;Humidity;BMP_temperature;BMP_pressure;BME280_temperature;BME280_humidity;BME280_pressure;Samples;Min_cycle;Max_cycle;Signal;HPM_P1;HPM_P2
2023/06/29 00:01:10;;;;;;;5.83;2.57;;;22.80;82.80;;;;;;5036388;28;20200;-62
2023/06/29 00:03:40;;;;;;;5.57;2.57;;;22.80;82.60;;;;;;5042641;28;20221;-62
2023/06/29 00:06:10;;;;;;;3.53;2.80;;;22.80;82.40;;;;;;5042390;28;20208;-62
2023/06/29 00:08:37;;;;;;;4.80;2.50;;;22.80;82.10;;;;;;5041299;28;20522;-62
2023/06/29 00:11:04;;;;;;;5.63;2.63;;;22.80;82.10;;;;;;5041746;28;20545;-62
2023/06/29 00:13:31;;;;;;;5.63;2.63;;;22.80;82.00;;;;;;5049172;28;20259;-62
2023/06/29 00:15:58;;;;;;;3.70;2.50;;;22.80;82.10;;;;;;5042364;28;20203;-62
2023/06/29 00:18:28;;;;;;;2.67;2.20;;;22.80;82.00;;;;;;5038731;28;20191;-62
2023/06/29 00:20:56;;;;;;;4.90;2.47;;;22.70;81.70;;;;;;5044585;28;20199;-63
2023/06/29 00:23:31;;;;;;;3.73;2.50;;;22.70;81.80;;;;;;5047658;28;20285;-62
2023/06/29 00:25:58;;;;;;;4.73;2.60;;;22.70;81.70;;;;;;5047882;28;20256;-62
2023/06/29 00:28:25;;;;;;;2.80;2.23;;;22.70;81.40;;;;;;5041147;28;20203;-62
2023/06/29 00:30:55;;;;;;;3.90;2.70;;;22.70;81.50;;;;;;5032419;28;20305;-62
2023/06/29 00:33:26;;;;;;;5.97;2.80;;;22.70;81.50;;;;;;5036558;28;20204;-62
2023/06/29 00:35:53;;;;;;;2.50;2.30;;;22.70;81.50;;;;;;5042019;28;20198;-62
2023/06/29 00:38:24;;;;;;;5.87;2.30;;;22.80;81.60;;;;;;5044961;28;20198;-62
2023/06/29 00:40:51;;;;;;;3.23;2.60;;;22.70;81.50;;;;;;5042082;28;20679;-62
2023/06/29 00:43:18;;;;;;;6.10;2.30;;;22.80;81.40;;;;;;5033067;28;20210;-62
2023/06/29 00:45:45;;;;;;;3.17;2.60;;;22.80;81.40;;;;;;5029812;28;20280;-62
2023/06/29 00:48:15;;;;;;;3.20;2.20;;;22.80;81.40;;;;;;5033057;28;20207;-62
2023/06/29 00:50:43;;;;;;;3.57;2.13;;;22.80;81.40;;;;;;5047189;28;20214;-62
2023/06/29 00:53:13;;;;;;;7.13;3.20;;;22.80;81.40;;;;;;5028249;28;20207;-62
2023/06/29 00:55:41;;;;;;;4.83;2.80;;;22.80;81.50;;;;;;5046246;28;20212;-62
2023/06/29 00:58:08;;;;;;;4.43;2.43;;;22.80;81.60;;;;;;5035266;28;20195;-62
2023/06/29 01:00:35;;;;;;;2.80;2.60;;;22.80;81.60;;;;;;5059550;28;20237;-62
2023/06/29 01:03:05;;;;;;;2.53;2.33;;;22.80;81.70;;;;;;5039575;28;20251;-62
2023/06/29 01:05:35;;;;;;;4.03;2.07;;;22.70;81.80;;;;;;5037383;28;20285;-62
2023/06/29 01:08:08;;;;;;;3.50;2.40;;;22.70;82.00;;;;;;5033396;28;20662;-62
2023/06/29 01:10:38;;;;;;;2.70;2.47;;;22.70;82.00;;;;;;5045071;28;20652;-62
2023/06/29 01:13:07;;;;;;;2.70;2.00;;;22.70;82.00;;;;;;5027631;28;20210;-62
2023/06/29 01:15:36;;;;;;;4.93;3.03;;;22.70;82.00;;;;;;5041909;28;20214;-62
2023/06/29 01:18:04;;;;;;;2.87;2.47;;;22.70;82.10;;;;;;5039257;28;20206;-62
2023/06/29 01:20:32;;;;;;;6.87;2.40;;;22.70;82.10;;;;;;5031515;28;20219;-62
2023/06/29 01:23:10;;;;;;;2.23;2.03;;;22.70;82.20;;;;;;5061077;28;20210;-62
2023/06/29 01:25:39;;;;;;;4.20;2.37;;;22.70;82.40;;;;;;5044454;28;20749;-62
2023/06/29 01:28:07;;;;;;;2.83;2.43;;;22.70;82.50;;;;;;5042832;28;20203;-62
2023/06/29 01:30:49;;;;;;;2.67;2.47;;;22.70;82.80;;;;;;5046686;28;20315;-62
2023/06/29 01:33:22;;;;;;;2.80;2.50;;;22.70;82.90;;;;;;5044507;28;20539;-64
2023/06/29 01:35:55;;;;;;;3.27;2.17;;;22.70;82.80;;;;;;5032569;28;20195;-62
2023/06/29 01:38:30;;;;;;;3.23;2.03;;;22.70;82.90;;;;;;5043190;28;20222;-62
2023/06/29 01:40:59;;;;;;;4.87;2.40;;;22.70;83.10;;;;;;5028302;28;20203;-63
2023/06/29 01:43:30;;;;;;;4.17;2.37;;;22.60;83.10;;;;;;5041581;28;20194;-62
2023/06/29 01:45:57;;;;;;;2.70;2.50;;;22.70;83.10;;;;;;5045962;28;20325;-62
2023/06/29 01:48:26;;;;;;;2.67;2.00;;;22.60;83.10;;;;;;5048158;28;20209;-62
2023/06/29 01:50:53;;;;;;;3.83;2.53;;;22.70;83.20;;;;;;5044413;28;20544;-62
2023/06/29 01:53:20;;;;;;;5.17;2.33;;;22.60;83.20;;;;;;5042085;28;20195;-62
2023/06/29 01:55:47;;;;;;;3.13;2.40;;;22.60;83.10;;;;;;5040162;28;20571;-62
2023/06/29 01:58:14;;;;;;;6.53;2.33;;;22.60;83.20;;;;;;5030072;28;20194;-62
2023/06/29 02:00:41;;;;;;;3.53;2.67;;;22.60;83.30;;;;;;5047041;28;20215;-62
2023/06/29 02:03:08;;;;;;;5.47;2.40;;;22.60;83.30;;;;;;5033846;28;20629;-62
2023/06/29 02:05:36;;;;;;;2.63;2.10;;;22.60;83.30;;;;;;5039677;28;20688;-62
2023/06/29 02:08:03;;;;;;;3.00;2.53;;;22.60;83.30;;;;;;5026280;28;20976;-62
2023/06/29 02:10:31;;;;;;;3.57;1.90;;;22.60;83.10;;;;;;5046685;28;20533;-62
2023/06/29 02:12:59;;;;;;;2.87;2.23;;;22.60;82.80;;;;;;5043099;28;20188;-62
2023/06/29 02:15:25;;;;;;;4.17;2.80;;;22.60;82.80;;;;;;5030759;28;20209;-62
2023/06/29 02:17:53;;;;;;;5.10;2.63;;;22.60;82.80;;;;;;5029014;28;20293;-62
2023/06/29 02:20:22;;;;;;;4.53;2.33;;;22.60;82.70;;;;;;5041330;28;20513;-62
2023/06/29 02:22:50;;;;;;;4.60;2.30;;;22.60;82.90;;;;;;5043082;28;20277;-62
2023/06/29 02:25:19;;;;;;;2.33;2.13;;;22.50;83.00;;;;;;5042992;28;20293;-62
2023/06/29 02:27:46;;;;;;;3.37;2.50;;;22.50;83.20;;;;;;5023568;28;20202;-62
2023/06/29 02:30:14;;;;;;;2.83;2.47;;;22.50;83.30;;;;;;5036297;28;20339;-62
2023/06/29 02:32:41;;;;;;;2.40;2.17;;;22.50;83.60;;;;;;5020133;28;20203;-62
2023/06/29 02:35:08;;;;;;;4.90;2.37;;;22.50;84.00;;;;;;5043822;28;20199;-62
2023/06/29 02:37:36;;;;;;;2.63;2.40;;;22.50;84.30;;;;;;5026797;28;20219;-62
2023/06/29 02:40:05;;;;;;;3.97;2.60;;;22.50;84.40;;;;;;5030049;28;20221;-62
2023/06/29 02:42:33;;;;;;;3.37;2.67;;;22.50;84.80;;;;;;5026284;28;20202;-62
2023/06/29 02:45:00;;;;;;;3.53;2.97;;;22.50;85.00;;;;;;5033698;28;20566;-62
2023/06/29 02:47:29;;;;;;;4.53;3.57;;;22.50;85.10;;;;;;5031127;28;20206;-62
2023/06/29 02:49:58;;;;;;;3.60;2.90;;;22.50;85.20;;;;;;5041896;28;20222;-62
2023/06/29 02:52:35;;;;;;;4.87;3.33;;;22.50;85.50;;;;;;5028989;28;20269;-62
2023/06/29 02:55:03;;;;;;;4.90;3.63;;;22.50;85.50;;;;;;5029251;28;20199;-62
2023/06/29 02:57:32;;;;;;;5.63;3.33;;;22.40;85.40;;;;;;5022887;28;20199;-63
2023/06/29 02:59:59;;;;;;;6.90;3.90;;;22.30;85.70;;;;;;5031141;28;20227;-62
2023/06/29 03:02:26;;;;;;;3.80;3.43;;;22.30;85.80;;;;;;5035234;28;20209;-63
2023/06/29 03:04:53;;;;;;;4.50;4.07;;;22.30;85.80;;;;;;5044168;28;20213;-62
2023/06/29 03:07:20;;;;;;;4.80;3.80;;;22.30;85.70;;;;;;5029567;28;20199;-62
2023/06/29 03:09:47;;;;;;;6.57;3.60;;;22.20;85.70;;;;;;5032268;28;20233;-62
2023/06/29 03:12:14;;;;;;;10.07;3.73;;;22.20;86.00;;;;;;5039240;28;20209;-62
2023/06/29 03:14:41;;;;;;;5.33;3.60;;;22.20;86.30;;;;;;5043965;28;20199;-62
2023/06/29 03:17:08;;;;;;;5.73;4.00;;;22.10;86.50;;;;;;5041186;28;20195;-62
2023/06/29 03:19:38;;;;;;;7.93;3.70;;;22.10;86.60;;;;;;5042260;28;20195;-62
2023/06/29 03:22:05;;;;;;;9.30;4.33;;;22.00;86.70;;;;;;5043433;28;20201;-62
2023/06/29 03:24:32;;;;;;;4.83;3.80;;;22.00;87.00;;;;;;5028788;28;20238;-62
2023/06/29 03:26:59;;;;;;;5.57;3.63;;;21.90;87.20;;;;;;5036875;28;20230;-62
2023/06/29 03:29:26;;;;;;;3.80;3.47;;;21.80;87.50;;;;;;5041354;28;20225;-62
2023/06/29 03:31:53;;;;;;;4.13;3.70;;;21.80;87.80;;;;;;5043747;28;20525;-62
2023/06/29 03:34:20;;;;;;;6.07;3.73;;;21.80;88.10;;;;;;5041736;28;20260;-63
2023/06/29 03:36:47;;;;;;;5.93;4.07;;;21.70;88.40;;;;;;5044580;28;20199;-62
2023/06/29 03:39:14;;;;;;;6.17;4.40;;;21.70;88.60;;;;;;5040462;28;20202;-62
2023/06/29 03:41:44;;;;;;;3.97;3.63;;;21.70;88.90;;;;;;5039422;28;20626;-62
2023/06/29 03:44:11;;;;;;;4.57;4.13;;;21.60;89.10;;;;;;5042276;28;20206;-62
2023/06/29 03:46:38;;;;;;;6.77;4.27;;;21.60;89.40;;;;;;5044992;28;20205;-62
2023/06/29 03:49:05;;;;;;;4.70;4.20;;;21.60;89.60;;;;;;5040011;28;20210;-62
2023/06/29 03:51:32;;;;;;;4.73;4.23;;;21.60;89.70;;;;;;5043151;28;20228;-62
2023/06/29 03:53:59;;;;;;;4.70;3.90;;;21.50;89.60;;;;;;5038759;28;20268;-62
2023/06/29 03:56:26;;;;;;;4.60;4.20;;;21.50;89.70;;;;;;5041476;28;20256;-62
2023/06/29 03:58:53;;;;;;;8.80;4.10;;;21.40;89.90;;;;;;5048938;28;20199;-62
2023/06/29 04:01:20;;;;;;;8.37;4.20;;;21.40;90.00;;;;;;5048380;28;20217;-62
2023/06/29 04:03:47;;;;;;;4.67;4.20;;;21.40;90.10;;;;;;5044206;28;20199;-62
2023/06/29 04:06:14;;;;;;;4.63;4.20;;;21.40;90.20;;;;;;5040939;28;20297;-62
2023/06/29 04:08:41;;;;;;;5.03;4.57;;;21.40;90.30;;;;;;5047445;28;20199;-62
2023/06/29 04:11:12;;;;;;;5.33;4.83;;;21.40;90.30;;;;;;5047255;28;20204;-62
2023/06/29 04:13:39;;;;;;;4.40;4.00;;;21.40;90.40;;;;;;5049757;28;20203;-62
2023/06/29 04:16:09;;;;;;;5.47;4.37;;;21.40;90.40;;;;;;5037066;28;20667;-62
2023/06/29 04:18:36;;;;;;;5.03;4.27;;;21.30;90.30;;;;;;5041231;28;20293;-62
2023/06/29 04:21:03;;;;;;;4.80;4.17;;;21.30;90.30;;;;;;5046005;28;20217;-62
2023/06/29 04:23:30;;;;;;;6.33;4.63;;;21.30;90.30;;;;;;5046729;28;20229;-62
2023/06/29 04:26:02;;;;;;;6.63;4.70;;;21.30;90.40;;;;;;5043598;28;20311;-62
2023/06/29 04:28:35;;;;;;;5.97;4.43;;;21.30;90.60;;;;;;5045551;28;20251;-62
2023/06/29 04:31:02;;;;;;;6.67;4.53;;;21.20;90.60;;;;;;5043525;28;20309;-62
2023/06/29 04:33:30;;;;;;;4.83;4.23;;;21.20;90.70;;;;;;5044144;28;20645;-62
2023/06/29 04:35:57;;;;;;;4.60;4.20;;;21.30;90.80;;;;;;5044438;28;20195;-62
2023/06/29 04:38:25;;;;;;;5.07;4.67;;;21.20;90.90;;;;;;5043027;28;20277;-62
2023/06/29 04:41:03;;;;;;;8.00;5.47;;;21.30;90.90;;;;;;5042399;28;20337;-62
2023/06/29 04:43:32;;;;;;;5.03;4.63;;;21.30;90.90;;;;;;5044825;28;20201;-62
2023/06/29 04:46:00;;;;;;;5.37;4.77;;;21.40;91.00;;;;;;5046527;28;20217;-62
2023/06/29 04:48:36;;;;;;;5.77;4.90;;;21.50;91.00;;;;;;5044476;28;20601;-62
2023/06/29 04:51:05;;;;;;;5.27;4.77;;;21.50;91.00;;;;;;5046411;28;20218;-62
2023/06/29 04:53:33;;;;;;;8.17;5.37;;;21.60;91.00;;;;;;5044316;28;20217;-62
2023/06/29 04:56:04;;;;;;;5.47;4.97;;;21.60;90.90;;;;;;5047421;28;20642;-62
2023/06/29 04:58:31;;;;;;;8.23;5.60;;;21.60;91.00;;;;;;5045320;28;20591;-62
2023/06/29 05:00:58;;;;;;;5.67;4.60;;;21.70;91.10;;;;;;5046313;28;20217;-62
2023/06/29 05:03:28;;;;;;;6.33;4.90;;;21.70;91.20;;;;;;5039029;28;20238;-62
2023/06/29 05:05:55;;;;;;;5.47;4.97;;;21.80;91.20;;;;;;5042629;28;20200;-62
2023/06/29 05:08:22;;;;;;;4.97;4.47;;;21.90;91.10;;;;;;5042603;28;20512;-62
2023/06/29 05:10:50;;;;;;;5.70;5.00;;;21.90;90.90;;;;;;5045049;28;20308;-62
2023/06/29 05:13:17;;;;;;;5.20;4.80;;;22.00;90.90;;;;;;5044047;28;20214;-62
2023/06/29 05:15:47;;;;;;;5.30;4.80;;;22.10;91.00;;;;;;5032721;28;20629;-62
2023/06/29 05:18:15;;;;;;;5.93;5.33;;;22.20;91.00;;;;;;5058021;28;20210;-63
2023/06/29 05:20:43;;;;;;;5.63;5.07;;;22.30;90.90;;;;;;5044509;28;20504;-62
2023/06/29 05:23:11;;;;;;;8.53;5.10;;;22.40;90.80;;;;;;5046659;28;20234;-62
2023/06/29 05:25:42;;;;;;;5.37;4.60;;;22.50;90.70;;;;;;5047790;28;20626;-62
2023/06/29 05:28:11;;;;;;;6.30;4.97;;;22.60;90.60;;;;;;5028932;28;20218;-62
2023/06/29 05:30:38;;;;;;;4.77;4.37;;;22.80;90.40;;;;;;5043915;28;20226;-62
2023/06/29 05:33:05;;;;;;;5.60;4.13;;;22.90;90.20;;;;;;5048782;28;20203;-62
2023/06/29 05:35:35;;;;;;;5.20;4.40;;;23.00;89.60;;;;;;5045408;28;20662;-62
2023/06/29 05:38:02;;;;;;;4.50;4.17;;;23.10;88.90;;;;;;5042305;28;20211;-62
2023/06/29 05:40:29;;;;;;;3.87;3.50;;;23.20;88.60;;;;;;5039684;28;20545;-62
2023/06/29 05:42:56;;;;;;;5.50;3.90;;;23.40;88.50;;;;;;5041146;28;20207;-62
2023/06/29 05:45:26;;;;;;;5.13;4.30;;;23.50;88.00;;;;;;5042329;28;20198;-62
2023/06/29 05:47:54;;;;;;;5.07;4.57;;;23.70;87.40;;;;;;5043515;28;20213;-63
2023/06/29 05:50:22;;;;;;;4.63;3.80;;;23.90;86.90;;;;;;5043348;28;20277;-63
2023/06/29 05:52:49;;;;;;;39.97;6.03;;;24.10;86.40;;;;;;5043594;28;20203;-63
2023/06/29 05:55:18;;;;;;;4.93;3.97;;;24.30;85.90;;;;;;5044442;28;20194;-63
2023/06/29 05:57:46;;;;;;;5.43;3.67;;;24.50;85.40;;;;;;5044045;28;20206;-63
2023/06/29 06:00:14;;;;;;;4.63;4.23;;;24.60;84.50;;;;;;5044958;28;20210;-63
2023/06/29 06:02:43;;;;;;;4.27;3.87;;;24.70;83.90;;;;;;5039042;28;20198;-63
2023/06/29 06:05:11;;;;;;;7.17;4.30;;;24.80;83.20;;;;;;5036739;28;20223;-63
2023/06/29 06:07:38;;;;;;;6.73;3.70;;;24.90;82.50;;;;;;5043644;28;20286;-63
2023/06/29 06:10:05;;;;;;;7.00;3.57;;;25.00;82.40;;;;;;5044422;28;20203;-63
2023/06/29 06:12:35;;;;;;;3.57;3.27;;;25.10;82.20;;;;;;5041557;28;20228;-63
2023/06/29 06:15:05;;;;;;;5.70;3.73;;;25.20;82.00;;;;;;5042195;28;20193;-63
2023/06/29 06:17:35;;;;;;;3.30;2.90;;;25.40;81.70;;;;;;5039799;28;20676;-63
2023/06/29 06:20:04;;;;;;;8.13;3.70;;;25.50;81.00;;;;;;5042300;28;20210;-63
2023/06/29 06:22:32;;;;;;;4.30;3.27;;;25.60;80.20;;;;;;5041867;28;20203;-63
2023/06/29 06:24:59;;;;;;;4.97;3.30;;;25.70;79.70;;;;;;5046370;28;20241;-63
2023/06/29 06:27:26;;;;;;;2.87;2.67;;;25.70;80.00;;;;;;5047084;28;20195;-63
2023/06/29 06:29:53;;;;;;;3.33;2.67;;;25.90;80.10;;;;;;5044213;28;20237;-63
2023/06/29 06:32:24;;;;;;;4.13;2.70;;;26.00;79.60;;;;;;5040912;28;20206;-63
2023/06/29 06:34:51;;;;;;;4.70;2.67;;;26.20;79.20;;;;;;5038423;28;20194;-63
2023/06/29 06:37:19;;;;;;;5.27;2.80;;;26.30;78.30;;;;;;5041420;28;20199;-63
2023/06/29 06:39:46;;;;;;;3.97;2.50;;;26.50;77.40;;;;;;5042386;28;20703;-63
2023/06/29 06:42:16;;;;;;;3.60;3.30;;;26.60;77.10;;;;;;5035783;28;20199;-63
2023/06/29 06:44:53;;;;;;;4.53;3.13;;;26.70;75.80;;;;;;5043189;28;20201;-63
2023/06/29 06:47:20;;;;;;;3.77;2.43;;;26.70;75.50;;;;;;5044039;28;20210;-63
2023/06/29 06:49:47;;;;;;;4.07;2.90;;;26.90;75.70;;;;;;5042880;28;20650;-63
2023/06/29 06:52:15;;;;;;;4.20;2.83;;;27.00;75.60;;;;;;5040676;28;20635;-63
2023/06/29 06:54:42;;;;;;;5.27;2.90;;;27.10;74.90;;;;;;5042413;28;20229;-63
2023/06/29 06:57:09;;;;;;;3.27;2.70;;;27.20;74.40;;;;;;5039167;28;20209;-63
2023/06/29 06:59:36;;;;;;;4.50;3.23;;;27.30;73.70;;;;;;5044100;28;20193;-63
2023/06/29 07:02:05;;;;;;;3.57;2.70;;;27.50;73.70;;;;;;5044505;28;20548;-62
2023/06/29 07:04:32;;;;;;;4.77;2.60;;;27.60;73.00;;;;;;5041495;28;20657;-63
2023/06/29 07:06:59;;;;;;;3.00;2.00;;;27.70;72.20;;;;;;5044045;28;20293;-63
2023/06/29 07:09:27;;;;;;;4.33;2.00;;;27.70;71.70;;;;;;5041636;28;20206;-63
2023/06/29 07:11:54;;;;;;;8.37;2.90;;;27.80;71.50;;;;;;5041843;28;20221;-63
2023/06/29 07:14:21;;;;;;;5.07;2.80;;;27.90;71.30;;;;;;5042908;28;20547;-63
2023/06/29 07:16:51;;;;;;;3.37;2.10;;;28.00;70.10;;;;;;5039158;28;20264;-63
2023/06/29 07:19:18;;;;;;;5.83;2.63;;;28.00;70.20;;;;;;5038654;28;20290;-63
2023/06/29 07:21:48;;;;;;;4.93;1.90;;;28.20;70.20;;;;;;5040468;28;20191;-63
2023/06/29 07:24:21;;;;;;;3.80;2.40;;;28.30;70.40;;;;;;5041509;28;20224;-63
2023/06/29 07:26:48;;;;;;;3.30;2.27;;;28.30;67.60;;;;;;5041170;28;20227;-63
2023/06/29 07:29:15;;;;;;;4.37;2.20;;;28.40;68.60;;;;;;5047958;28;20214;-63
2023/06/29 07:31:42;;;;;;;2.07;1.93;;;28.40;69.70;;;;;;5047184;28;20393;-63
2023/06/29 07:34:09;;;;;;;2.90;2.03;;;28.50;70.00;;;;;;5049749;28;20275;-63
2023/06/29 07:36:36;;;;;;;3.17;2.23;;;28.70;69.50;;;;;;5052690;28;20209;-63
2023/06/29 07:39:04;;;;;;;5.10;2.30;;;28.90;68.70;;;;;;5057692;28;20220;-63
2023/06/29 07:41:31;;;;;;;6.20;2.53;;;28.90;67.20;;;;;;5055009;28;20194;-63
2023/06/29 07:44:01;;;;;;;4.47;2.67;;;28.90;66.00;;;;;;5057241;28;20208;-63
2023/06/29 07:46:28;;;;;;;5.43;2.30;;;28.90;66.20;;;;;;5050243;28;20601;-62
2023/06/29 07:48:55;;;;;;;2.30;2.10;;;28.90;66.10;;;;;;5045874;28;20712;-63
2023/06/29 07:51:22;;;;;;;2.30;2.10;;;28.80;66.70;;;;;;5046685;28;20219;-63
2023/06/29 07:53:50;;;;;;;4.37;2.03;;;29.00;67.40;;;;;;5045528;28;20218;-63
2023/06/29 07:56:18;;;;;;;2.57;2.13;;;29.10;67.20;;;;;;5047079;28;20818;-63
2023/06/29 07:58:46;;;;;;;2.40;2.10;;;29.30;67.30;;;;;;5047131;28;20202;-63
2023/06/29 08:01:13;;;;;;;6.67;2.07;;;29.40;66.50;;;;;;5050805;28;20198;-63
2023/06/29 08:03:41;;;;;;;3.83;1.90;;;29.60;65.70;;;;;;5047879;28;20200;-63
2023/06/29 08:06:27;;;;;;;5.17;2.30;;;29.60;64.50;;;;;;5044951;28;20234;-63
2023/06/29 08:08:57;;;;;;;3.93;2.03;;;29.70;64.00;;;;;;5047108;28;20201;-63
2023/06/29 08:11:25;;;;;;;4.83;2.03;;;29.60;61.50;;;;;;5049281;28;20230;-63
2023/06/29 08:13:51;;;;;;;5.17;1.70;;;29.60;61.40;;;;;;5048315;28;20203;-63
2023/06/29 08:16:19;;;;;;;1.90;1.67;;;29.50;60.80;;;;;;5041454;28;20195;-63
2023/06/29 08:18:46;;;;;;;4.00;1.93;;;29.60;62.10;;;;;;5047963;28;20195;-63
2023/06/29 08:21:15;;;;;;;3.33;1.73;;;29.60;60.70;;;;;;5048562;28;20217;-63
2023/06/29 08:23:42;;;;;;;3.33;1.67;;;29.70;61.50;;;;;;5050400;28;20202;-63
2023/06/29 08:26:09;;;;;;;1.73;1.37;;;29.70;59.60;;;;;;5045948;28;20320;-63
2023/06/29 08:28:36;;;;;;;6.00;2.20;;;29.80;58.70;;;;;;5043267;28;20211;-63
2023/06/29 08:31:03;;;;;;;4.03;1.73;;;29.90;58.40;;;;;;5047082;28;20202;-63
2023/06/29 08:33:33;;;;;;;1.43;1.33;;;30.10;59.00;;;;;;5049427;28;20656;-63
2023/06/29 08:36:00;;;;;;;2.13;1.93;;;30.20;57.70;;;;;;5048671;28;20191;-63
2023/06/29 08:38:30;;;;;;;3.33;1.43;;;30.40;58.10;;;;;;5045569;28;20199;-63
2023/06/29 08:40:59;;;;;;;3.00;1.60;;;30.50;56.60;;;;;;5042993;28;20245;-63
2023/06/29 08:43:27;;;;;;;1.97;1.80;;;30.60;56.50;;;;;;5046164;28;20202;-63
2023/06/29 08:45:54;;;;;;;3.37;1.60;;;30.70;56.90;;;;;;5045397;28;20289;-63
2023/06/29 08:48:23;;;;;;;2.13;1.60;;;30.80;57.50;;;;;;5044736;28;20214;-62
2023/06/29 08:50:55;;;;;;;1.60;1.40;;;31.00;57.30;;;;;;5032417;28;20207;-63
2023/06/29 08:53:22;;;;;;;2.07;1.60;;;31.10;57.40;;;;;;5039034;28;20306;-63
2023/06/29 08:55:51;;;;;;;4.83;2.13;;;31.20;56.50;;;;;;5043104;28;20223;-63
2023/06/29 08:58:22;;;;;;;2.33;1.90;;;31.20;56.70;;;;;;5046197;28;20276;-63
2023/06/29 09:00:50;;;;;;;2.10;1.90;;;31.40;57.60;;;;;;5041701;28;20209;-63
2023/06/29 09:03:17;;;;;;;2.47;2.13;;;31.50;56.90;;;;;;5044391;28;20202;-63
2023/06/29 09:05:45;;;;;;;3.23;2.37;;;31.60;57.40;;;;;;5045259;28;20499;-63
2023/06/29 09:08:15;;;;;;;2.93;2.00;;;31.80;57.50;;;;;;5042155;28;20198;-63
2023/06/29 09:10:46;;;;;;;2.03;1.80;;;31.90;57.20;;;;;;5045134;28;20203;-63
2023/06/29 09:13:13;;;;;;;3.23;1.73;;;32.00;57.30;;;;;;5049457;28;20252;-64
2023/06/29 09:15:41;;;;;;;2.97;2.50;;;32.10;56.50;;;;;;5042422;28;20285;-62
2023/06/29 09:18:11;;;;;;;3.50;2.13;;;32.20;55.70;;;;;;5044078;28;20196;-62
2023/06/29 09:20:42;;;;;;;2.07;1.93;;;32.10;54.60;;;;;;5046154;28;20195;-63
2023/06/29 09:23:12;;;;;;;3.23;2.23;;;32.10;56.10;;;;;;5041286;28;20210;-62
2023/06/29 09:25:39;;;;;;;6.70;2.17;;;32.10;55.60;;;;;;5045434;28;20274;-62
2023/06/29 09:28:07;;;;;;;3.47;1.70;;;32.10;55.00;;;;;;5037114;28;20195;-62
2023/06/29 09:30:40;;;;;;;2.97;1.97;;;32.00;56.30;;;;;;5044370;28;20211;-61
2023/06/29 09:33:12;;;;;;;2.17;1.77;;;32.10;55.50;;;;;;5042492;28;20303;-61
2023/06/29 09:35:46;;;;;;;4.33;1.50;;;32.20;55.10;;;;;;5042803;28;20207;-61
2023/06/29 09:38:18;;;;;;;4.20;1.93;;;32.30;55.20;;;;;;5043208;28;20594;-63
2023/06/29 09:40:50;;;;;;;1.93;1.60;;;32.40;54.60;;;;;;5041972;28;20278;-63
2023/06/29 09:43:25;;;;;;;3.53;1.90;;;32.40;53.30;;;;;;5040843;28;20203;-64
2023/06/29 09:46:07;;;;;;;2.97;1.90;;;32.30;53.50;;;;;;5043506;28;20536;-63
2023/06/29 09:48:45;;;;;;;2.13;1.70;;;32.30;52.00;;;;;;5040622;28;20190;-64
2023/06/29 09:51:22;;;;;;;3.07;1.87;;;32.20;51.50;;;;;;5047510;28;20692;-63
2023/06/29 09:53:50;;;;;;;3.50;2.00;;;32.20;52.80;;;;;;5039592;28;20203;-62
2023/06/29 09:56:17;;;;;;;2.37;1.93;;;32.20;53.30;;;;;;5041241;28;20655;-62
2023/06/29 09:58:46;;;;;;;2.97;2.50;;;32.10;51.20;;;;;;5043065;28;20656;-62
2023/06/29 10:01:15;;;;;;;6.83;1.90;;;32.10;52.90;;;;;;5042512;28;20690;-63
2023/06/29 10:03:44;;;;;;;2.23;1.80;;;32.10;53.60;;;;;;5042159;28;20524;-62
2023/06/29 10:06:19;;;;;;;5.53;2.20;;;32.20;53.60;;;;;;5039082;28;20532;-62
2023/06/29 10:08:53;;;;;;;4.07;2.10;;;32.30;52.90;;;;;;5040347;28;20210;-63
2023/06/29 10:11:22;;;;;;;2.63;2.07;;;32.40;53.60;;;;;;5041692;28;20199;-63
2023/06/29 10:13:50;;;;;;;1.70;1.60;;;32.50;52.50;;;;;;5046119;28;20219;-61
2023/06/29 10:16:22;;;;;;;4.80;2.03;;;32.60;50.70;;;;;;5036466;28;20199;-61
2023/06/29 10:18:54;;;;;;;4.23;1.57;;;32.70;51.70;;;;;;5038101;28;20265;-63
2023/06/29 10:21:21;;;;;;;1.97;1.63;;;32.70;52.60;;;;;;5041360;28;20198;-64
2023/06/29 10:23:50;;;;;;;2.70;1.60;;;32.80;51.50;;;;;;5044825;28;20293;-63
2023/06/29 10:26:18;;;;;;;1.50;1.40;;;33.00;51.20;;;;;;5049139;28;20562;-63
2023/06/29 10:28:45;;;;;;;5.50;1.80;;;33.10;51.80;;;;;;5048025;28;20223;-64
2023/06/29 10:31:18;;;;;;;1.93;1.70;;;33.20;50.80;;;;;;5053145;28;20218;-64
2023/06/29 10:33:48;;;;;;;3.43;1.80;;;33.30;48.90;;;;;;5045501;28;21173;-63
2023/06/29 10:36:19;;;;;;;3.37;2.03;;;33.30;48.10;;;;;;5042492;28;20606;-63
2023/06/29 10:38:46;;;;;;;1.90;1.60;;;33.30;46.70;;;;;;5041677;28;20210;-63
2023/06/29 10:41:26;;;;;;;4.00;1.93;;;33.30;45.50;;;;;;5037970;28;20210;-63
2023/06/29 10:43:58;;;;;;;5.40;1.60;;;33.10;46.70;;;;;;5042418;28;20652;-63
2023/06/29 10:46:41;;;;;;;3.93;1.77;;;33.00;46.50;;;;;;5042843;28;20311;-63
2023/06/29 10:49:23;;;;;;;3.20;1.70;;;33.00;46.40;;;;;;5042310;28;20214;-63
2023/06/29 10:52:03;;;;;;;9.37;1.80;;;33.10;46.60;;;;;;5058425;28;20202;-63
2023/06/29 10:54:31;;;;;;;3.50;2.00;;;33.10;44.80;;;;;;5041682;28;20228;-62
2023/06/29 10:57:05;;;;;;;2.37;1.70;;;33.10;44.40;;;;;;5046157;28;20199;-62
2023/06/29 10:59:34;;;;;;;2.27;1.10;;;33.10;45.30;;;;;;5042375;28;20218;-65
2023/06/29 11:02:03;;;;;;;1.70;1.60;;;33.20;45.60;;;;;;5033552;28;20685;-65
2023/06/29 11:04:30;;;;;;;2.60;1.50;;;33.30;43.00;;;;;;5038359;28;20207;-65
2023/06/29 11:07:06;;;;;;;2.10;1.37;;;33.30;42.20;;;;;;5043051;28;20222;-65
2023/06/29 11:09:34;;;;;;;2.33;1.30;;;33.30;42.80;;;;;;5044346;28;20224;-63
2023/06/29 11:12:01;;;;;;;3.40;1.50;;;33.30;42.40;;;;;;5042403;28;20317;-64
2023/06/29 11:14:28;;;;;;;1.60;1.50;;;33.30;42.20;;;;;;5039782;28;20557;-64
2023/06/29 11:16:56;;;;;;;2.50;1.50;;;33.30;41.60;;;;;;5042222;28;20209;-64
2023/06/29 11:19:28;;;;;;;1.37;1.20;;;33.40;42.10;;;;;;5039210;28;20191;-64
2023/06/29 11:21:55;;;;;;;1.70;1.40;;;33.50;41.10;;;;;;5040477;28;20206;-66
2023/06/29 11:24:22;;;;;;;2.63;1.60;;;33.50;40.10;;;;;;5041917;28;20278;-64
2023/06/29 11:26:49;;;;;;;4.70;1.67;;;33.50;40.80;;;;;;5041617;28;20195;-63
2023/06/29 11:29:17;;;;;;;1.40;1.30;;;33.50;40.80;;;;;;5044913;28;20199;-65
2023/06/29 11:31:44;;;;;;;1.63;1.50;;;33.50;41.00;;;;;;5040470;28;20257;-66
2023/06/29 11:34:17;;;;;;;2.00;1.30;;;33.50;39.60;;;;;;5038771;28;20203;-63
2023/06/29 11:36:44;;;;;;;1.30;1.20;;;33.50;39.80;;;;;;5037970;28;20345;-64
2023/06/29 11:39:31;;;;;;;1.40;1.30;;;33.40;39.00;;;;;;5036607;28;20195;-67
2023/06/29 11:42:00;;;;;;;3.43;1.40;;;33.30;40.10;;;;;;5035680;28;20194;-64
2023/06/29 11:44:27;;;;;;;1.60;1.50;;;33.40;39.10;;;;;;5041077;28;20596;-63
2023/06/29 11:46:57;;;;;;;2.13;1.27;;;33.30;38.50;;;;;;5044872;28;20282;-65
2023/06/29 11:49:48;;;;;;;4.23;1.37;;;33.10;38.80;;;;;;5040491;28;20214;-64
2023/06/29 11:52:16;;;;;;;2.53;1.30;;;33.10;39.10;;;;;;5036144;28;20226;-64
2023/06/29 11:54:46;;;;;;;5.83;1.90;;;33.10;40.10;;;;;;5034813;28;20270;-64
2023/06/29 11:57:20;;;;;;;2.60;1.57;;;33.10;39.10;;;;;;5039508;28;20205;-64
2023/06/29 11:59:47;;;;;;;1.47;1.33;;;33.10;38.00;;;;;;5045493;28;20278;-65
2023/06/29 12:02:15;;;;;;;3.07;1.70;;;33.10;39.20;;;;;;5043420;28;20207;-65
2023/06/29 12:04:58;;;;;;;2.97;1.70;;;33.10;38.90;;;;;;5042547;28;20214;-64
2023/06/29 12:07:35;;;;;;;2.73;1.57;;;33.10;37.50;;;;;;5042247;28;20238;-65
2023/06/29 12:10:07;;;;;;;1.57;1.37;;;33.10;39.60;;;;;;5040935;28;20257;-65
2023/06/29 12:12:38;;;;;;;2.50;1.37;;;33.10;39.10;;;;;;5040608;28;20206;-64
2023/06/29 12:15:19;;;;;;;1.23;1.13;;;33.10;40.00;;;;;;5041424;28;20535;-65
2023/06/29 12:17:48;;;;;;;1.70;1.30;;;33.10;39.60;;;;;;5044102;28;20234;-65
2023/06/29 12:20:20;;;;;;;1.50;1.40;;;33.10;39.80;;;;;;5044848;28;20192;-65
2023/06/29 12:22:50;;;;;;;1.37;1.20;;;33.10;40.60;;;;;;5047747;28;20207;-64
2023/06/29 12:25:18;;;;;;;3.93;1.80;;;33.20;42.40;;;;;;5042915;28;20768;-65
2023/06/29 12:27:48;;;;;;;3.63;1.60;;;33.30;41.80;;;;;;5042553;28;20298;-65
2023/06/29 12:30:18;;;;;;;1.20;1.10;;;33.30;39.70;;;;;;5047668;28;20234;-64
2023/06/29 12:32:45;;;;;;;2.63;1.20;;;33.30;38.30;;;;;;5044004;28;20214;-65
2023/06/29 12:35:15;;;;;;;1.57;1.47;;;33.10;38.80;;;;;;5045501;28;20207;-65
2023/06/29 12:37:44;;;;;;;3.90;1.63;;;32.90;39.20;;;;;;5043625;28;20202;-65
2023/06/29 12:40:14;;;;;;;3.33;1.50;;;32.80;40.20;;;;;;5052031;28;20194;-65
2023/06/29 12:42:44;;;;;;;1.90;1.60;;;32.80;40.40;;;;;;5044171;28;20206;-65
2023/06/29 12:45:12;;;;;;;1.47;1.30;;;32.60;39.90;;;;;;5050548;28;20545;-64
2023/06/29 12:47:39;;;;;;;4.07;1.50;;;32.60;40.70;;;;;;5043130;28;20518;-65
2023/06/29 12:50:12;;;;;;;2.87;1.60;;;32.50;41.00;;;;;;5045319;28;20538;-65
2023/06/29 12:52:40;;;;;;;1.90;1.23;;;32.60;41.00;;;;;;5041132;28;20218;-65
2023/06/29 12:55:09;;;;;;;2.70;1.50;;;32.70;40.00;;;;;;5045508;28;20277;-65
2023/06/29 12:57:38;;;;;;;2.83;1.50;;;32.70;40.20;;;;;;5044684;28;20306;-65